createdAt,value
2023-05-06T00:00:25.846Z,101315.82
2023-05-06T00:03:01.234Z,101314.89
2023-05-06T00:05:30.303Z,101314.72
2023-05-06T00:07:57.108Z,101316.31
2023-05-06T00:10:35.417Z,101319.96
2023-05-06T00:13:11.247Z,101323.65
2023-05-06T00:15:45.578Z,101318.96
2023-05-06T00:18:09.601Z,101318.84
2023-05-06T00:20:43.976Z,101321.44
2023-05-06T00:23:17.654Z,101323.42
2023-05-06T00:25:50.879Z,101323.63
2023-05-06T00:28:25.560Z,101326.70
2023-05-06T00:31:00.310Z,101328.62
2023-05-06T00:33:27.942Z,101330.39
2023-05-06T00:36:00.819Z,101332.55
2023-05-06T00:38:36.105Z,101335.27
2023-05-06T00:41:11.998Z,101334.25
2023-05-06T00:43:46.366Z,101339.89
2023-05-06T00:46:22.852Z,101342.80
2023-05-06T00:48:46.310Z,101339.98
2023-05-06T00:51:09.666Z,101340.88
2023-05-06T00:53:43.378Z,101341.12
2023-05-06T00:56:16.069Z,101339.67
2023-05-06T00:58:36.882Z,101335.64
2023-05-06T01:04:02.855Z,101339.04
2023-05-06T01:06:45.849Z,101336.23
2023-05-06T01:09:22.608Z,101332.80
2023-05-06T01:12:02.265Z,101332.73
2023-05-06T01:14:36.596Z,101332.48
2023-05-06T01:17:07.769Z,101332.89
2023-05-06T01:19:48.180Z,101332.00
2023-05-06T01:22:13.120Z,101332.23
2023-05-06T01:24:48.632Z,101330.33
2023-05-06T01:27:15.838Z,101337.42
2023-05-06T01:29:43.151Z,101336.80
2023-05-06T01:32:32.871Z,101336.19
2023-05-06T01:35:20.847Z,101334.54
2023-05-06T01:38:02.101Z,101338.22
2023-05-06T01:43:15.602Z,101338.41
2023-05-06T01:45:54.454Z,101333.73
2023-05-06T01:48:29.892Z,101329.98
2023-05-06T01:51:03.962Z,101326.58
2023-05-06T01:53:37.784Z,101325.52
2023-05-06T01:56:13.155Z,101323.52
2023-05-06T01:58:46.101Z,101319.34
2023-05-06T02:01:18.417Z,101320.17
2023-05-06T02:03:46.922Z,101320.81
2023-05-06T02:06:14.483Z,101324.19
2023-05-06T02:08:42.409Z,101322.39
2023-05-06T02:11:16.905Z,101322.10
2023-05-06T02:13:51.979Z,101325.46
2023-05-06T02:16:26.482Z,101328.18
2023-05-06T02:19:00.387Z,101329.84
2023-05-06T02:21:19.506Z,101329.88
2023-05-06T02:23:50.163Z,101330.31
2023-05-06T02:26:17.651Z,101331.41
2023-05-06T02:28:45.264Z,101329.35
2023-05-06T02:31:22.960Z,101330.20
2023-05-06T02:33:58.151Z,101335.41
2023-05-06T02:36:31.047Z,101335.52
2023-05-06T02:38:57.143Z,101339.00
2023-05-06T02:41:31.544Z,101344.73
2023-05-06T02:43:54.189Z,101348.65
2023-05-06T02:46:17.800Z,101347.61
2023-05-06T02:48:52.652Z,101349.36
2023-05-06T02:51:27.372Z,101351.92
2023-05-06T02:54:03.756Z,101350.83
2023-05-06T02:56:38.180Z,101353.92
2023-05-06T02:59:12.711Z,101357.33
2023-05-06T03:01:39.815Z,101355.50
2023-05-06T03:04:03.995Z,101352.80
2023-05-06T03:06:23.105Z,101353.02
2023-05-06T03:08:45.290Z,101354.07
2023-05-06T03:11:05.828Z,101351.96
2023-05-06T03:13:33.964Z,101356.37
2023-05-06T03:16:00.830Z,101358.39
2023-05-06T03:18:35.236Z,101357.89
2023-05-06T03:21:10.181Z,101360.02
2023-05-06T03:23:44.858Z,101360.39
2023-05-06T03:26:19.889Z,101363.55
2023-05-06T03:28:53.224Z,101361.25
2023-05-06T03:31:20.714Z,101363.63
2023-05-06T03:33:47.799Z,101364.33
2023-05-06T03:36:15.860Z,101363.09
2023-05-06T03:38:44.030Z,101366.20
2023-05-06T03:41:19.231Z,101369.61
2023-05-06T03:43:52.386Z,101369.52
2023-05-06T03:46:21.873Z,101367.02
2023-05-06T03:48:55.876Z,101366.30
2023-05-06T03:51:30.397Z,101364.31
2023-05-06T03:53:58.936Z,101366.75
2023-05-06T03:56:25.751Z,101371.13
2023-05-06T03:58:58.639Z,101372.66
2023-05-06T04:01:32.649Z,101374.69
2023-05-06T04:04:06.512Z,101374.55
2023-05-06T04:06:41.209Z,101376.29
2023-05-06T04:09:14.816Z,101375.77
2023-05-06T04:11:41.749Z,101382.48
2023-05-06T04:14:04.901Z,101384.04
2023-05-06T04:16:39.153Z,101385.86
2023-05-06T04:19:06.343Z,101388.63
2023-05-06T04:21:37.349Z,101390.34
2023-05-06T04:23:57.637Z,101387.03
2023-05-06T04:26:19.305Z,101390.52
2023-05-06T04:28:39.247Z,101389.71
2023-05-06T04:31:03.949Z,101394.44
2023-05-06T04:33:31.165Z,101395.05
2023-05-06T04:36:05.542Z,101400.95
2023-05-06T04:38:39.248Z,101404.27
2023-05-06T04:41:05.590Z,101410.63
2023-05-06T04:43:39.401Z,101410.83
2023-05-06T04:46:13.462Z,101413.52
2023-05-06T04:48:31.992Z,101414.80
2023-05-06T04:50:57.925Z,101410.22
2023-05-06T04:53:26.082Z,101408.69
2023-05-06T04:56:01.802Z,101403.91
2023-05-06T04:58:20.054Z,101406.66
2023-05-06T05:00:36.853Z,101401.02
2023-05-06T05:02:53.637Z,101405.13
2023-05-06T05:05:27.197Z,101406.91
2023-05-06T05:07:48.093Z,101405.81
2023-05-06T05:10:15.499Z,101405.38
2023-05-06T05:12:38.623Z,101405.27
2023-05-06T05:15:15.871Z,101400.55
2023-05-06T05:17:51.737Z,101401.35
2023-05-06T05:20:25.032Z,101402.79
2023-05-06T05:22:59.545Z,101400.89
2023-05-06T05:25:27.489Z,101402.48
2023-05-06T05:28:14.721Z,101400.48
2023-05-06T05:30:48.363Z,101404.14
2023-05-06T05:33:22.394Z,101405.08
2023-05-06T05:35:49.301Z,101405.61
2023-05-06T05:38:26.079Z,101403.84
2023-05-06T05:41:01.125Z,101403.34
2023-05-06T05:43:34.442Z,101403.62
2023-05-06T05:46:08.303Z,101404.15
2023-05-06T05:48:33.742Z,101403.35
2023-05-06T05:51:08.351Z,101403.77
2023-05-06T05:53:42.468Z,101400.22
2023-05-06T05:56:08.995Z,101400.48
2023-05-06T06:01:30.622Z,101396.41
2023-05-06T06:04:02.706Z,101395.23
2023-05-06T06:09:14.160Z,101391.00
2023-05-06T06:11:49.069Z,101387.98
2023-05-06T06:14:23.156Z,101389.92
2023-05-06T06:16:57.230Z,101389.11
2023-05-06T06:19:33.107Z,101392.25
2023-05-06T06:21:56.479Z,101390.84
2023-05-06T06:24:30.177Z,101392.55
2023-05-06T06:27:04.690Z,101391.67
2023-05-06T06:29:37.988Z,101389.13
2023-05-06T06:32:06.100Z,101387.09
2023-05-06T06:34:29.421Z,101385.36
2023-05-06T06:37:03.218Z,101384.94
2023-05-06T06:39:26.151Z,101387.66
2023-05-06T06:41:59.306Z,101387.55
2023-05-06T06:44:33.590Z,101386.38
2023-05-06T06:46:52.611Z,101386.03
2023-05-06T06:49:28.059Z,101385.69
2023-05-06T06:52:02.107Z,101385.38
2023-05-06T06:54:35.842Z,101388.24
2023-05-06T06:57:10.329Z,101385.80
2023-05-06T06:59:43.862Z,101387.67
2023-05-06T07:02:17.772Z,101382.68
2023-05-06T07:04:52.547Z,101382.32
2023-05-06T07:07:26.758Z,101383.23
2023-05-06T07:10:01.631Z,101381.11
2023-05-06T07:12:36.447Z,101377.38
2023-05-06T07:15:15.219Z,101376.42
2023-05-06T07:17:48.937Z,101374.23
2023-05-06T07:20:23.565Z,101375.02
2023-05-06T07:22:58.310Z,101379.14
2023-05-06T07:25:32.708Z,101376.64
2023-05-06T07:28:06.871Z,101375.33
2023-05-06T07:30:30.718Z,101374.15
2023-05-06T07:33:05.738Z,101371.14
2023-05-06T07:35:34.602Z,101368.14
2023-05-06T07:37:58.835Z,101372.79
2023-05-06T07:40:31.987Z,101371.49
2023-05-06T07:43:05.539Z,101373.89
2023-05-06T07:45:39.957Z,101377.78
2023-05-06T07:48:16.503Z,101382.71
2023-05-06T07:50:43.557Z,101383.09
2023-05-06T07:53:17.264Z,101382.91
2023-05-06T07:55:45.399Z,101380.79
2023-05-06T07:58:14.380Z,101380.79
2023-05-06T08:00:48.673Z,101380.73
2023-05-06T08:03:14.278Z,101378.17
2023-05-06T08:05:48.810Z,101377.14
2023-05-06T08:08:17.037Z,101374.27
2023-05-06T08:10:49.975Z,101371.25
2023-05-06T08:13:25.372Z,101372.27
2023-05-06T08:15:53.244Z,101370.63
2023-05-06T08:18:26.884Z,101371.47
2023-05-06T08:20:56.001Z,101368.77
2023-05-06T08:23:22.661Z,101370.64
2023-05-06T08:25:55.113Z,101374.38
2023-05-06T08:28:28.012Z,101376.31
2023-05-06T08:31:02.866Z,101378.10
2023-05-06T08:33:38.820Z,101380.63
2023-05-06T08:36:06.415Z,101380.36
2023-05-06T08:38:31.777Z,101379.13
2023-05-06T08:41:02.843Z,101375.27
2023-05-06T08:43:43.683Z,101372.31
2023-05-06T08:46:10.863Z,101378.05
2023-05-06T08:48:46.106Z,101377.59
2023-05-06T08:51:26.101Z,101377.33
2023-05-06T08:54:03.395Z,101377.26
2023-05-06T08:56:40.075Z,101380.45
2023-05-06T08:59:14.903Z,101375.73
2023-05-06T09:01:49.304Z,101378.80
2023-05-06T09:04:25.701Z,101379.70
2023-05-06T09:06:59.419Z,101378.67
2023-05-06T09:09:34.413Z,101376.86
2023-05-06T09:12:13.541Z,101375.34
2023-05-06T09:14:48.963Z,101372.59
2023-05-06T09:17:29.163Z,101371.47
2023-05-06T09:20:03.012Z,101369.49
2023-05-06T09:22:40.726Z,101367.20
2023-05-06T09:25:16.236Z,101362.80
2023-05-06T09:27:44.078Z,101358.27
2023-05-06T09:30:19.710Z,101353.42
2023-05-06T09:32:55.866Z,101351.90
2023-05-06T09:35:32.984Z,101348.98
2023-05-06T09:38:07.348Z,101351.45
2023-05-06T09:40:43.243Z,101348.55
2023-05-06T09:43:18.543Z,101348.95
2023-05-06T09:45:52.790Z,101345.02
2023-05-06T09:48:26.975Z,101344.90
2023-05-06T09:51:02.807Z,101344.05
2023-05-06T09:53:40.316Z,101346.01
2023-05-06T09:56:15.213Z,101347.20
2023-05-06T09:58:50.559Z,101348.63
2023-05-06T10:01:35.367Z,101348.74
2023-05-06T10:04:15.414Z,101353.27
2023-05-06T10:06:40.608Z,101352.17
2023-05-06T10:09:15.775Z,101355.84
2023-05-06T10:11:43.405Z,101353.91
2023-05-06T10:14:18.148Z,101350.52
2023-05-06T10:16:53.802Z,101351.34
2023-05-06T10:19:31.672Z,101347.73
2023-05-06T10:21:58.856Z,101350.02
2023-05-06T10:24:37.126Z,101347.13
2023-05-06T10:27:14.439Z,101344.89
2023-05-06T10:29:46.664Z,101344.98
2023-05-06T10:32:23.434Z,101344.04
2023-05-06T10:35:01.966Z,101345.20
2023-05-06T10:37:38.305Z,101348.42
2023-05-06T10:40:14.700Z,101350.64
2023-05-06T10:42:50.096Z,101346.39
2023-05-06T10:45:17.852Z,101344.42
2023-05-06T10:48:13.979Z,101347.81
2023-05-06T10:50:48.591Z,101343.86
2023-05-06T10:53:42.878Z,101344.35
2023-05-06T10:56:17.803Z,101338.48
2023-05-06T10:58:56.955Z,101337.49
2023-05-06T11:01:24.364Z,101338.50
2023-05-06T11:03:59.788Z,101336.70
2023-05-06T11:06:48.775Z,101339.93
2023-05-06T11:09:26.665Z,101340.91
2023-05-06T11:12:08.283Z,101339.08
2023-05-06T11:14:43.836Z,101336.98
2023-05-06T11:17:36.247Z,101338.72
2023-05-06T11:20:27.792Z,101345.50
2023-05-06T11:23:02.014Z,101344.42
2023-05-06T11:25:52.452Z,101342.10
2023-05-06T11:28:22.477Z,101342.47
2023-05-06T11:31:05.662Z,101338.08
2023-05-06T11:33:35.949Z,101338.75
2023-05-06T11:36:19.250Z,101336.92
2023-05-06T11:38:55.416Z,101338.11
2023-05-06T11:41:20.362Z,101339.77
2023-05-06T11:43:57.400Z,101338.98
2023-05-06T11:46:37.461Z,101340.88
2023-05-06T11:49:00.638Z,101342.17
2023-05-06T11:51:34.504Z,101346.06
2023-05-06T11:54:07.104Z,101345.14
2023-05-06T11:56:59.592Z,101342.09
2023-05-06T11:59:38.579Z,101342.19
2023-05-06T12:02:16.049Z,101342.57
2023-05-06T12:04:51.122Z,101342.25
2023-05-06T12:07:25.921Z,101345.06
2023-05-06T12:10:05.179Z,101342.77
2023-05-06T12:12:39.507Z,101340.61
2023-05-06T12:15:02.847Z,101345.44
2023-05-06T12:17:36.935Z,101347.60
2023-05-06T12:20:13.858Z,101351.50
2023-05-06T12:22:48.328Z,101346.39
2023-05-06T12:25:25.240Z,101346.63
2023-05-06T12:28:00.735Z,101342.92
2023-05-06T12:30:38.814Z,101342.98
2023-05-06T12:33:14.040Z,101343.96
2023-05-06T12:35:51.860Z,101345.39
2023-05-06T12:38:27.622Z,101346.73
2023-05-06T12:41:01.985Z,101349.11
2023-05-06T12:43:38.781Z,101346.33
2023-05-06T12:46:13.525Z,101346.83
2023-05-06T12:48:58.774Z,101347.21
2023-05-06T12:51:35.560Z,101345.48
2023-05-06T12:54:01.205Z,101346.27
2023-05-06T12:56:28.048Z,101346.02
2023-05-06T12:59:06.507Z,101348.98
2023-05-06T13:01:41.284Z,101347.11
2023-05-06T13:04:03.958Z,101345.48
2023-05-06T13:06:37.448Z,101343.27
2023-05-06T13:09:13.598Z,101342.44
2023-05-06T13:11:50.003Z,101343.77
2023-05-06T13:14:24.159Z,101345.44
2023-05-06T13:17:01.999Z,101345.72
2023-05-06T13:19:32.880Z,101345.36
2023-05-06T13:22:08.711Z,101349.06
2023-05-06T13:24:37.603Z,101343.73
2023-05-06T13:27:11.438Z,101346.41
2023-05-06T13:29:46.200Z,101343.38
2023-05-06T13:32:20.598Z,101344.74
2023-05-06T13:34:54.379Z,101348.48
2023-05-06T13:37:29.618Z,101345.09
2023-05-06T13:40:07.246Z,101344.70
2023-05-06T13:42:41.961Z,101346.50
2023-05-06T13:45:18.735Z,101347.74
2023-05-06T13:47:53.419Z,101351.60
2023-05-06T13:50:27.841Z,101351.92
2023-05-06T13:53:04.452Z,101357.33
2023-05-06T13:55:39.240Z,101359.61
2023-05-06T13:58:02.136Z,101356.38
2023-05-06T14:00:28.081Z,101359.77
2023-05-06T14:02:56.218Z,101366.21
2023-05-06T14:05:19.951Z,101368.11
2023-05-06T14:07:49.868Z,101366.59
2023-05-06T14:10:24.772Z,101369.97
2023-05-06T14:13:00.378Z,101371.73
2023-05-06T14:15:34.675Z,101368.16
2023-05-06T14:17:56.673Z,101370.12
2023-05-06T14:20:34.305Z,101367.52
2023-05-06T14:23:12.243Z,101369.36
2023-05-06T14:25:46.610Z,101370.88
2023-05-06T14:28:10.579Z,101367.78
2023-05-06T14:30:44.003Z,101372.68
2023-05-06T14:33:18.296Z,101372.23
2023-05-06T14:35:47.337Z,101377.73
2023-05-06T14:38:21.059Z,101372.36
2023-05-06T14:40:44.488Z,101378.40
2023-05-06T14:43:19.448Z,101386.00
2023-05-06T14:45:54.993Z,101386.88
2023-05-06T14:48:30.879Z,101386.94
2023-05-06T14:51:06.202Z,101385.57
2023-05-06T14:53:40.962Z,101391.56
2023-05-06T14:56:16.654Z,101405.20
2023-05-06T14:58:51.334Z,101400.50
2023-05-06T15:01:16.656Z,101399.48
2023-05-06T15:03:54.570Z,101395.52
2023-05-06T15:06:28.711Z,101395.45
2023-05-06T15:08:56.450Z,101399.56
2023-05-06T15:11:31.055Z,101397.67
2023-05-06T15:13:59.578Z,101398.36
2023-05-06T15:16:27.053Z,101400.42
2023-05-06T15:19:01.793Z,101402.50
2023-05-06T15:21:35.881Z,101409.63
2023-05-06T15:24:11.260Z,101408.70
2023-05-06T15:26:47.106Z,101409.33
2023-05-06T15:29:20.732Z,101409.57
2023-05-06T15:31:56.324Z,101409.67
2023-05-06T15:34:30.825Z,101411.55
2023-05-06T15:37:05.687Z,101410.07
2023-05-06T15:39:41.941Z,101411.63
2023-05-06T15:42:15.042Z,101413.89
2023-05-06T15:44:52.615Z,101414.90
2023-05-06T15:47:28.391Z,101420.33
2023-05-06T15:50:14.130Z,101419.11
2023-05-06T15:52:50.954Z,101416.86
2023-05-06T15:55:26.614Z,101418.86
2023-05-06T15:58:01.098Z,101425.81
2023-05-06T16:00:37.013Z,101418.14
2023-05-06T16:03:13.134Z,101420.02
2023-05-06T16:05:48.793Z,101421.86
2023-05-06T16:08:23.647Z,101420.09
2023-05-06T16:10:58.564Z,101420.98
2023-05-06T16:13:32.351Z,101424.27
2023-05-06T16:16:07.438Z,101431.66
2023-05-06T16:18:41.812Z,101433.36
2023-05-06T16:21:15.583Z,101431.65
2023-05-06T16:23:39.808Z,101431.19
2023-05-06T16:26:13.513Z,101427.00
2023-05-06T16:28:48.279Z,101429.58
2023-05-06T16:31:22.106Z,101429.75
2023-05-06T16:33:57.620Z,101435.34
2023-05-06T16:36:31.324Z,101438.59
2023-05-06T16:39:00.701Z,101438.23
2023-05-06T16:41:35.421Z,101441.79
2023-05-06T16:44:09.739Z,101440.63
2023-05-06T16:46:41.660Z,101437.34
2023-05-06T16:49:16.657Z,101436.08
2023-05-06T16:51:52.135Z,101440.30
2023-05-06T16:54:15.933Z,101441.04
2023-05-06T16:56:52.473Z,101442.55
2023-05-06T16:59:27.337Z,101443.06
2023-05-06T17:01:59.616Z,101447.39
2023-05-06T17:04:34.814Z,101450.23
2023-05-06T17:07:01.703Z,101451.41
2023-05-06T17:09:28.008Z,101454.43
2023-05-06T17:12:03.566Z,101454.39
2023-05-06T17:14:39.696Z,101449.70
2023-05-06T17:17:13.851Z,101446.81
2023-05-06T17:19:48.367Z,101450.36
2023-05-06T17:22:14.285Z,101446.77
2023-05-06T17:24:43.810Z,101449.02
2023-05-06T17:27:29.227Z,101451.41
2023-05-06T17:30:04.244Z,101449.01
2023-05-06T17:32:39.347Z,101450.48
2023-05-06T17:35:14.224Z,101447.93
2023-05-06T17:37:50.042Z,101445.79
2023-05-06T17:40:16.745Z,101449.42
2023-05-06T17:42:43.989Z,101449.63
2023-05-06T17:45:19.246Z,101449.17
2023-05-06T17:47:46.400Z,101451.44
2023-05-06T17:50:16.706Z,101452.65
2023-05-06T17:52:43.910Z,101451.26
2023-05-06T17:55:18.069Z,101448.65
2023-05-06T17:57:53.749Z,101452.86
2023-05-06T18:00:27.958Z,101451.98
2023-05-06T18:03:02.550Z,101453.94
2023-05-06T18:05:30.743Z,101456.13
2023-05-06T18:08:05.898Z,101452.19
2023-05-06T18:10:33.101Z,101450.05
2023-05-06T18:13:06.997Z,101449.71
2023-05-06T18:15:40.968Z,101453.77
2023-05-06T18:18:00.728Z,101450.98
2023-05-06T18:20:24.941Z,101450.32
2023-05-06T18:22:47.554Z,101451.36
2023-05-06T18:25:16.827Z,101449.98
2023-05-06T18:27:51.161Z,101452.55
2023-05-06T18:30:18.999Z,101454.59
2023-05-06T18:32:45.961Z,101455.58
2023-05-06T18:35:20.498Z,101458.84
2023-05-06T18:37:47.680Z,101458.09
2023-05-06T18:40:23.068Z,101457.02
2023-05-06T18:42:57.698Z,101457.14
2023-05-06T18:45:20.238Z,101457.11
2023-05-06T18:47:54.494Z,101457.49
2023-05-06T18:50:28.933Z,101454.51
2023-05-06T18:53:02.702Z,101452.49
2023-05-06T18:55:36.564Z,101454.57
2023-05-06T18:58:01.550Z,101451.33
2023-05-06T19:00:25.341Z,101450.05
2023-05-06T19:03:01.172Z,101447.32
2023-05-06T19:05:34.788Z,101451.69
2023-05-06T19:07:56.902Z,101449.23
2023-05-06T19:10:31.266Z,101453.05
2023-05-06T19:13:06.199Z,101455.11
2023-05-06T19:15:40.621Z,101455.77
2023-05-06T19:18:14.400Z,101459.19
2023-05-06T19:20:49.141Z,101457.41
2023-05-06T19:23:23.454Z,101460.16
2023-05-06T19:25:57.887Z,101461.48
2023-05-06T19:28:31.962Z,101460.67
2023-05-06T19:31:09.671Z,101458.27
2023-05-06T19:33:43.255Z,101456.53
2023-05-06T19:36:17.423Z,101456.73
2023-05-06T19:38:52.379Z,101454.34
2023-05-06T19:41:27.070Z,101453.65
2023-05-06T19:44:00.635Z,101453.02
2023-05-06T19:46:33.880Z,101451.87
2023-05-06T19:49:08.094Z,101450.58
2023-05-06T19:51:42.017Z,101450.47
2023-05-06T19:54:18.125Z,101449.58
2023-05-06T19:56:52.586Z,101450.67
2023-05-06T19:59:26.885Z,101448.73
2023-05-06T20:02:02.924Z,101447.63
2023-05-06T20:04:25.805Z,101447.61
2023-05-06T20:07:00.989Z,101442.86
2023-05-06T20:09:34.687Z,101444.88
2023-05-06T20:11:57.405Z,101442.80
2023-05-06T20:14:32.175Z,101442.05
2023-05-06T20:17:05.934Z,101440.14
2023-05-06T20:19:30.645Z,101444.70
2023-05-06T20:22:06.332Z,101440.81
2023-05-06T20:24:40.803Z,101447.67
2023-05-06T20:27:09.776Z,101449.98
2023-05-06T20:29:43.951Z,101449.40
2023-05-06T20:32:17.554Z,101447.66
2023-05-06T20:34:52.543Z,101445.58
2023-05-06T20:37:26.645Z,101450.61
2023-05-06T20:40:02.059Z,101450.60
2023-05-06T20:42:35.146Z,101448.04
2023-05-06T20:45:12.457Z,101451.96
2023-05-06T20:47:36.437Z,101452.29
2023-05-06T20:50:17.926Z,101449.91
2023-05-06T20:52:54.330Z,101451.60
2023-05-06T20:55:28.744Z,101449.04
2023-05-06T20:58:03.782Z,101448.78
2023-05-06T21:00:38.709Z,101443.99
2023-05-06T21:03:13.324Z,101445.91
2023-05-06T21:05:48.939Z,101444.48
2023-05-06T21:08:23.243Z,101451.44
2023-05-06T21:10:58.202Z,101451.06
2023-05-06T21:13:21.875Z,101454.99
2023-05-06T21:15:55.818Z,101454.88
2023-05-06T21:18:31.335Z,101458.14
2023-05-06T21:21:05.619Z,101452.83
2023-05-06T21:23:41.440Z,101454.45
2023-05-06T21:26:15.088Z,101455.14
2023-05-06T21:28:52.980Z,101457.33
2023-05-06T21:31:24.635Z,101459.27
2023-05-06T21:34:01.939Z,101459.48
2023-05-06T21:36:37.077Z,101459.14
2023-05-06T21:39:11.002Z,101456.76
2023-05-06T21:41:35.447Z,101462.39
2023-05-06T21:44:10.334Z,101463.73
2023-05-06T21:46:45.849Z,101464.79
2023-05-06T21:49:20.571Z,101459.56
2023-05-06T21:51:56.241Z,101460.06
2023-05-06T21:54:32.596Z,101459.25
2023-05-06T21:57:09.112Z,101459.88
2023-05-06T21:59:31.081Z,101459.84
2023-05-06T22:02:04.672Z,101457.63
2023-05-06T22:07:25.992Z,101457.43
2023-05-06T22:10:01.594Z,101458.46
2023-05-06T22:12:36.374Z,101455.56
2023-05-06T22:15:10.778Z,101454.57
2023-05-06T22:17:45.103Z,101452.09
2023-05-06T22:20:20.811Z,101452.31
2023-05-06T22:22:53.591Z,101450.36
2023-05-06T22:25:22.014Z,101450.57
2023-05-06T22:27:58.341Z,101449.38
2023-05-06T22:30:32.976Z,101449.40
2023-05-06T22:33:07.138Z,101449.21
2023-05-06T22:35:40.285Z,101447.88
2023-05-06T22:38:14.969Z,101447.85
2023-05-06T22:40:37.901Z,101445.27
2023-05-06T22:43:12.362Z,101441.71
2023-05-06T22:45:40.420Z,101443.60
2023-05-06T22:48:16.918Z,101446.61
2023-05-06T22:50:39.760Z,101445.26
2023-05-06T22:53:15.524Z,101448.00
2023-05-06T22:55:49.837Z,101447.52
2023-05-06T22:58:24.007Z,101448.52
2023-05-06T23:00:57.743Z,101452.22
2023-05-06T23:03:32.833Z,101449.73
2023-05-06T23:06:07.396Z,101447.34
2023-05-06T23:08:42.053Z,101449.34
2023-05-06T23:11:18.299Z,101448.91
2023-05-06T23:13:51.733Z,101449.63
2023-05-06T23:16:26.336Z,101451.23
2023-05-06T23:19:00.599Z,101451.04
2023-05-06T23:21:36.422Z,101454.66
2023-05-06T23:23:58.610Z,101455.17
2023-05-06T23:26:31.842Z,101451.91
2023-05-06T23:29:09.629Z,101453.06
2023-05-06T23:31:44.114Z,101456.48
2023-05-06T23:34:17.807Z,101456.41
2023-05-06T23:36:52.381Z,101455.89
2023-05-06T23:39:26.802Z,101461.30
2023-05-06T23:42:03.349Z,101461.20
2023-05-06T23:44:39.302Z,101463.95
2023-05-06T23:47:13.957Z,101462.13
2023-05-06T23:49:38.699Z,101463.40
2023-05-06T23:52:01.774Z,101462.15
2023-05-06T23:54:25.073Z,101467.73
2023-05-06T23:56:59.436Z,101472.08
2023-05-06T23:59:35.160Z,101476.83
